SBCT/CWB METAR and TAF weather

Enter ICAO airport designator
Station Type Date Time Source
SBCT METAR 2022/11/30 10:00 UTC NOAA

SBCT 301000Z 11003KT 9999 OVC009 18/18 Q1009


Station Type Date Time Source
SBCT Decoded METAR 2022/11/30 10:00 UTC NOAA

Curitiba Aeroporto , Brazil (SBCT) 25-31S 049-10W 908M
Nov 30, 2022 - 05:00 AM EST / 2022.11.30 1000 UTC
Wind: from the ESE (110 degrees) at 3 MPH (3 KT):0
Visibility: greater than 7 mile(s):0
Sky conditions: overcast
Temperature: 64 F (18 C)
Dew Point: 64 F (18 C)
Relative Humidity: 100%
Pressure (altimeter): 29.80 in. Hg (1009 hPa)
ob: SBCT 301000Z 11003KT 9999 OVC009 18/18 Q1009
cycle: 10

Station Type Date Time Source
SBCT TAF 2022/11/30 12:46 UTC NOAA

TAF SBCT 300900Z 3012/0112 11006KT 8000 BKN004 BKN012 TX23/3016Z TN17/0109Z
TEMPO 3012/3016 4000 RA BKN008 BKN015
BECMG 3016/3018 5000 TSRA BKN010 FEW030CB
BECMG 3021/3023 8000 NSW BKN004
BECMG 0100/0102 3000 BR BKN007
BECMG 0109/0111 8000 BKN020 FEW030TCU
RMK PFR

Example: see airport list